createdAt,value
2019-03-13T00:02:22.598Z,1.10
2019-03-13T00:04:53.037Z,1.00
2019-03-13T00:07:23.751Z,0.90
2019-03-13T00:09:54.106Z,1.13
2019-03-13T00:12:24.936Z,0.90
2019-03-13T00:14:55.859Z,0.60
2019-03-13T00:17:26.482Z,0.70
2019-03-13T00:19:57.475Z,0.80
2019-03-13T00:22:27.847Z,0.90
2019-03-13T00:24:58.395Z,1.10
2019-03-13T00:27:28.775Z,0.80
2019-03-13T00:29:59.675Z,1.10
2019-03-13T00:32:30.084Z,0.90
2019-03-13T00:35:00.733Z,0.90
2019-03-13T00:37:31.149Z,0.87
2019-03-13T00:40:01.702Z,0.70
2019-03-13T00:42:32.160Z,0.90
2019-03-13T00:45:02.487Z,0.93
2019-03-13T00:47:33.068Z,0.83
2019-03-13T00:50:03.830Z,0.87
2019-03-13T00:52:34.247Z,0.67
2019-03-13T00:55:04.900Z,1.20
2019-03-13T00:57:35.421Z,0.93
2019-03-13T01:00:06.740Z,1.00
2019-03-13T01:02:39.507Z,0.70
2019-03-13T01:05:23.268Z,0.70
2019-03-13T01:07:53.857Z,0.70
2019-03-13T01:10:24.359Z,0.70
2019-03-13T01:12:54.933Z,0.80
2019-03-13T01:15:25.380Z,0.70
2019-03-13T01:17:55.944Z,0.60
2019-03-13T01:20:26.749Z,0.57
2019-03-13T01:22:57.092Z,0.60
2019-03-13T01:25:27.655Z,0.70
2019-03-13T01:27:58.068Z,0.60
2019-03-13T01:30:30.692Z,0.50
2019-03-13T01:33:06.339Z,0.60
2019-03-13T01:35:49.834Z,0.57
2019-03-13T01:38:20.185Z,0.60
2019-03-13T01:40:50.586Z,0.60
2019-03-13T01:43:20.955Z,0.40
2019-03-13T01:45:51.418Z,0.30
2019-03-13T01:48:21.943Z,0.37
2019-03-13T01:50:52.459Z,0.40
2019-03-13T01:53:22.802Z,0.40
2019-03-13T01:55:53.417Z,0.50
2019-03-13T01:58:23.947Z,0.40
2019-03-13T02:00:54.464Z,0.40
2019-03-13T02:03:24.986Z,0.30
2019-03-13T02:05:55.503Z,0.40
2019-03-13T02:08:26.183Z,0.30
2019-03-13T02:10:56.552Z,0.40
2019-03-13T02:13:26.987Z,0.40
2019-03-13T02:15:57.436Z,0.30
2019-03-13T02:18:27.943Z,0.30
2019-03-13T02:20:59.615Z,0.30
2019-03-13T02:23:30.113Z,0.30
2019-03-13T02:26:00.484Z,0.20
2019-03-13T02:28:30.919Z,0.30
2019-03-13T02:31:01.244Z,0.30
2019-03-13T02:33:31.745Z,0.30
2019-03-13T02:36:03.286Z,0.20
2019-03-13T02:38:33.679Z,0.30
2019-03-13T02:41:04.596Z,0.97
2019-03-13T02:43:35.072Z,0.40
2019-03-13T02:46:05.875Z,0.50
2019-03-13T02:48:36.298Z,0.67
2019-03-13T02:51:07.145Z,0.43
2019-03-13T02:53:37.664Z,0.60
2019-03-13T02:56:08.114Z,0.40
2019-03-13T02:58:38.777Z,0.43
2019-03-13T03:01:18.738Z,0.70
2019-03-13T03:03:52.168Z,0.50
2019-03-13T03:06:22.624Z,0.70
2019-03-13T03:08:53.193Z,0.63
2019-03-13T03:11:23.610Z,0.77
2019-03-13T03:13:54.119Z,0.70
2019-03-13T03:16:24.590Z,0.70
2019-03-13T03:18:55.036Z,0.73
2019-03-13T03:21:25.575Z,0.83
2019-03-13T03:23:56.073Z,0.70
2019-03-13T03:26:26.393Z,0.83
2019-03-13T03:28:56.799Z,1.00
2019-03-13T03:31:27.145Z,0.80
2019-03-13T03:34:01.870Z,0.80
2019-03-13T03:36:32.563Z,0.90
2019-03-13T03:39:04.615Z,1.13
2019-03-13T03:41:36.688Z,1.10
2019-03-13T03:44:07.446Z,1.77
2019-03-13T03:46:37.920Z,1.70
2019-03-13T03:49:08.711Z,2.23
2019-03-13T03:51:39.218Z,2.70
2019-03-13T03:54:10.158Z,2.57
2019-03-13T03:56:40.619Z,3.63
2019-03-13T03:59:11.168Z,4.43
2019-03-13T04:01:41.664Z,3.40
2019-03-13T04:04:13.207Z,4.10
2019-03-13T04:06:43.773Z,4.10
2019-03-13T04:09:14.250Z,3.30
2019-03-13T04:11:44.686Z,3.97
2019-03-13T04:14:15.441Z,4.40
2019-03-13T04:16:45.899Z,3.23
2019-03-13T04:19:16.282Z,3.63
2019-03-13T04:21:47.094Z,2.93
2019-03-13T04:24:17.595Z,2.90
2019-03-13T04:26:49.100Z,2.70
2019-03-13T04:29:19.623Z,1.97
2019-03-13T04:31:50.003Z,1.60
2019-03-13T04:34:20.468Z,1.47
2019-03-13T04:36:51.017Z,0.70
2019-03-13T04:39:21.627Z,0.77
